sensor_id;sensor_type;location;lat;lon;timestamp;P1;durP1;ratioP1;P2;durP2;ratioP2
22026;SDS011;11177;50.966;10.070;2024-03-23T00:52:38;36.88;;;21.17;;
22026;SDS011;11177;50.966;10.070;2024-03-23T00:55:04;40.67;;;22.48;;
22026;SDS011;11177;50.966;10.070;2024-03-23T00:57:30;36.13;;;21.42;;
22026;SDS011;11177;50.966;10.070;2024-03-23T00:59:56;42.20;;;22.40;;
22026;SDS011;11177;50.966;10.070;2024-03-23T01:02:21;42.85;;;21.00;;
22026;SDS011;11177;50.966;10.070;2024-03-23T01:04:48;31.98;;;19.77;;
22026;SDS011;11177;50.966;10.070;2024-03-23T01:07:13;34.20;;;19.95;;
22026;SDS011;11177;50.966;10.070;2024-03-23T01:09:39;33.85;;;19.55;;
22026;SDS011;11177;50.966;10.070;2024-03-23T01:12:05;35.30;;;19.38;;
22026;SDS011;11177;50.966;10.070;2024-03-23T01:14:31;37.78;;;21.70;;
22026;SDS011;11177;50.966;10.070;2024-03-23T01:16:58;43.78;;;21.80;;
22026;SDS011;11177;50.966;10.070;2024-03-23T01:19:24;39.13;;;21.48;;
22026;SDS011;11177;50.966;10.070;2024-03-23T01:21:49;41.20;;;22.45;;
22026;SDS011;11177;50.966;10.070;2024-03-23T01:24:15;39.28;;;21.60;;
22026;SDS011;11177;50.966;10.070;2024-03-23T01:26:41;36.40;;;21.13;;
22026;SDS011;11177;50.966;10.070;2024-03-23T01:29:06;34.92;;;20.73;;
22026;SDS011;11177;50.966;10.070;2024-03-23T01:31:33;38.95;;;22.10;;
22026;SDS011;11177;50.966;10.070;2024-03-23T01:33:59;39.22;;;21.73;;
22026;SDS011;11177;50.966;10.070;2024-03-23T01:36:25;36.55;;;21.58;;
22026;SDS011;11177;50.966;10.070;2024-03-23T01:38:51;39.83;;;22.02;;
22026;SDS011;11177;50.966;10.070;2024-03-23T01:41:17;37.35;;;21.55;;
22026;SDS011;11177;50.966;10.070;2024-03-23T01:43:55;37.78;;;21.27;;
22026;SDS011;11177;50.966;10.070;2024-03-23T01:46:22;35.67;;;20.05;;
22026;SDS011;11177;50.966;10.070;2024-03-23T01:48:48;39.65;;;21.38;;
22026;SDS011;11177;50.966;10.070;2024-03-23T01:51:14;38.45;;;21.15;;
22026;SDS011;11177;50.966;10.070;2024-03-23T01:53:40;37.22;;;20.73;;
22026;SDS011;11177;50.966;10.070;2024-03-23T01:56:06;36.58;;;21.10;;
22026;SDS011;11177;50.966;10.070;2024-03-23T01:58:32;36.22;;;20.67;;
22026;SDS011;11177;50.966;10.070;2024-03-23T02:00:58;34.35;;;20.08;;
22026;SDS011;11177;50.966;10.070;2024-03-23T02:03:24;38.67;;;21.13;;
22026;SDS011;11177;50.966;10.070;2024-03-23T02:05:50;33.55;;;19.00;;
22026;SDS011;11177;50.966;10.070;2024-03-23T02:08:18;30.25;;;18.30;;
22026;SDS011;11177;50.966;10.070;2024-03-23T02:10:46;34.92;;;18.88;;
22026;SDS011;11177;50.966;10.070;2024-03-23T02:13:13;37.05;;;19.63;;
22026;SDS011;11177;50.966;10.070;2024-03-23T02:15:39;30.20;;;17.75;;
22026;SDS011;11177;50.966;10.070;2024-03-23T02:18:06;29.98;;;18.30;;
22026;SDS011;11177;50.966;10.070;2024-03-23T02:20:32;33.22;;;18.77;;
22026;SDS011;11177;50.966;10.070;2024-03-23T02:22:58;33.90;;;18.65;;
22026;SDS011;11177;50.966;10.070;2024-03-23T02:25:24;32.83;;;18.70;;
22026;SDS011;11177;50.966;10.070;2024-03-23T02:27:50;31.30;;;18.92;;
22026;SDS011;11177;50.966;10.070;2024-03-23T02:30:16;38.42;;;20.45;;
22026;SDS011;11177;50.966;10.070;2024-03-23T02:32:42;35.95;;;19.83;;
22026;SDS011;11177;50.966;10.070;2024-03-23T02:35:08;37.85;;;21.17;;
22026;SDS011;11177;50.966;10.070;2024-03-23T02:37:36;39.10;;;19.58;;
22026;SDS011;11177;50.966;10.070;2024-03-23T02:40:02;39.40;;;20.17;;
22026;SDS011;11177;50.966;10.070;2024-03-23T02:42:28;38.75;;;20.95;;
22026;SDS011;11177;50.966;10.070;2024-03-23T02:44:54;40.92;;;21.02;;
22026;SDS011;11177;50.966;10.070;2024-03-23T02:47:20;41.58;;;20.50;;
22026;SDS011;11177;50.966;10.070;2024-03-23T02:49:46;38.58;;;21.05;;
22026;SDS011;11177;50.966;10.070;2024-03-23T02:52:11;37.45;;;20.27;;
22026;SDS011;11177;50.966;10.070;2024-03-23T02:54:37;36.35;;;20.77;;
22026;SDS011;11177;50.966;10.070;2024-03-23T02:57:03;40.30;;;21.00;;
22026;SDS011;11177;50.966;10.070;2024-03-23T02:59:30;38.17;;;21.08;;
22026;SDS011;11177;50.966;10.070;2024-03-23T03:01:55;39.05;;;21.85;;
22026;SDS011;11177;50.966;10.070;2024-03-23T03:04:24;41.97;;;22.67;;
22026;SDS011;11177;50.966;10.070;2024-03-23T03:06:50;45.08;;;23.05;;
22026;SDS011;11177;50.966;10.070;2024-03-23T03:09:16;44.67;;;21.90;;
22026;SDS011;11177;50.966;10.070;2024-03-23T03:11:41;41.08;;;21.00;;
22026;SDS011;11177;50.966;10.070;2024-03-23T03:14:07;47.55;;;23.73;;
22026;SDS011;11177;50.966;10.070;2024-03-23T03:16:36;44.08;;;23.17;;
22026;SDS011;11177;50.966;10.070;2024-03-23T03:19:02;40.72;;;20.17;;
22026;SDS011;11177;50.966;10.070;2024-03-23T03:21:30;39.05;;;18.30;;
22026;SDS011;11177;50.966;10.070;2024-03-23T03:23:56;35.38;;;18.63;;
22026;SDS011;11177;50.966;10.070;2024-03-23T03:26:22;39.33;;;19.42;;
22026;SDS011;11177;50.966;10.070;2024-03-23T03:28:48;34.83;;;18.17;;
22026;SDS011;11177;50.966;10.070;2024-03-23T03:31:15;36.38;;;18.25;;
22026;SDS011;11177;50.966;10.070;2024-03-23T03:33:41;31.23;;;17.20;;
22026;SDS011;11177;50.966;10.070;2024-03-23T03:36:07;38.25;;;17.95;;
22026;SDS011;11177;50.966;10.070;2024-03-23T03:38:33;32.42;;;16.77;;
22026;SDS011;11177;50.966;10.070;2024-03-23T03:41:01;34.00;;;16.90;;
22026;SDS011;11177;50.966;10.070;2024-03-23T03:43:27;30.10;;;16.20;;
22026;SDS011;11177;50.966;10.070;2024-03-23T03:45:53;30.38;;;16.83;;
22026;SDS011;11177;50.966;10.070;2024-03-23T03:48:22;27.35;;;15.38;;
22026;SDS011;11177;50.966;10.070;2024-03-23T03:50:48;30.63;;;15.45;;
22026;SDS011;11177;50.966;10.070;2024-03-23T03:53:14;32.35;;;15.73;;
22026;SDS011;11177;50.966;10.070;2024-03-23T03:55:40;26.65;;;14.05;;
22026;SDS011;11177;50.966;10.070;2024-03-23T03:58:06;25.67;;;14.10;;
22026;SDS011;11177;50.966;10.070;2024-03-23T04:00:31;24.30;;;13.68;;
22026;SDS011;11177;50.966;10.070;2024-03-23T04:02:57;26.25;;;14.40;;
22026;SDS011;11177;50.966;10.070;2024-03-23T04:05:23;26.90;;;14.18;;
22026;SDS011;11177;50.966;10.070;2024-03-23T04:07:49;25.88;;;14.20;;
22026;SDS011;11177;50.966;10.070;2024-03-23T04:10:14;24.35;;;13.65;;
22026;SDS011;11177;50.966;10.070;2024-03-23T04:12:43;26.90;;;13.90;;
22026;SDS011;11177;50.966;10.070;2024-03-23T04:15:10;26.08;;;14.75;;
22026;SDS011;11177;50.966;10.070;2024-03-23T04:17:35;23.23;;;13.93;;
22026;SDS011;11177;50.966;10.070;2024-03-23T04:20:01;21.17;;;12.75;;
22026;SDS011;11177;50.966;10.070;2024-03-23T04:22:29;20.48;;;10.07;;
22026;SDS011;11177;50.966;10.070;2024-03-23T04:24:55;18.25;;;9.68;;
22026;SDS011;11177;50.966;10.070;2024-03-23T04:27:22;17.42;;;9.55;;
22026;SDS011;11177;50.966;10.070;2024-03-23T04:29:52;14.95;;;8.38;;
22026;SDS011;11177;50.966;10.070;2024-03-23T04:32:18;16.48;;;8.13;;
22026;SDS011;11177;50.966;10.070;2024-03-23T04:34:44;13.60;;;7.70;;
22026;SDS011;11177;50.966;10.070;2024-03-23T04:37:10;13.32;;;6.97;;
22026;SDS011;11177;50.966;10.070;2024-03-23T04:39:36;11.98;;;6.70;;
22026;SDS011;11177;50.966;10.070;2024-03-23T04:42:02;9.38;;;5.38;;
22026;SDS011;11177;50.966;10.070;2024-03-23T04:44:28;8.73;;;4.80;;
22026;SDS011;11177;50.966;10.070;2024-03-23T04:46:54;7.30;;;4.00;;
22026;SDS011;11177;50.966;10.070;2024-03-23T04:49:20;7.93;;;4.03;;
22026;SDS011;11177;50.966;10.070;2024-03-23T04:51:46;5.93;;;3.17;;
22026;SDS011;11177;50.966;10.070;2024-03-23T04:54:12;4.70;;;2.90;;
22026;SDS011;11177;50.966;10.070;2024-03-23T04:56:37;4.28;;;2.60;;
22026;SDS011;11177;50.966;10.070;2024-03-23T04:59:03;5.38;;;2.50;;
22026;SDS011;11177;50.966;10.070;2024-03-23T05:01:30;4.65;;;2.15;;
22026;SDS011;11177;50.966;10.070;2024-03-23T05:03:57;4.03;;;2.75;;
22026;SDS011;11177;50.966;10.070;2024-03-23T05:06:23;4.20;;;1.98;;
22026;SDS011;11177;50.966;10.070;2024-03-23T05:08:49;5.55;;;2.50;;
22026;SDS011;11177;50.966;10.070;2024-03-23T05:11:15;3.45;;;2.13;;
22026;SDS011;11177;50.966;10.070;2024-03-23T05:13:41;2.58;;;1.75;;
22026;SDS011;11177;50.966;10.070;2024-03-23T05:16:07;3.72;;;2.35;;
22026;SDS011;11177;50.966;10.070;2024-03-23T05:18:34;5.68;;;2.35;;
22026;SDS011;11177;50.966;10.070;2024-03-23T05:21:00;4.32;;;2.67;;
22026;SDS011;11177;50.966;10.070;2024-03-23T05:23:26;4.00;;;2.42;;
22026;SDS011;11177;50.966;10.070;2024-03-23T05:25:55;5.15;;;2.83;;
22026;SDS011;11177;50.966;10.070;2024-03-23T05:28:21;5.47;;;2.97;;
22026;SDS011;11177;50.966;10.070;2024-03-23T05:30:50;5.32;;;2.58;;
22026;SDS011;11177;50.966;10.070;2024-03-23T05:33:18;6.80;;;2.85;;
22026;SDS011;11177;50.966;10.070;2024-03-23T05:35:54;5.53;;;2.53;;
22026;SDS011;11177;50.966;10.070;2024-03-23T05:38:25;4.05;;;2.40;;
22026;SDS011;11177;50.966;10.070;2024-03-23T05:40:55;3.72;;;2.28;;
22026;SDS011;11177;50.966;10.070;2024-03-23T05:43:21;3.70;;;2.50;;
22026;SDS011;11177;50.966;10.070;2024-03-23T05:46:00;3.70;;;2.40;;
22026;SDS011;11177;50.966;10.070;2024-03-23T05:48:27;2.33;;;1.80;;
22026;SDS011;11177;50.966;10.070;2024-03-23T05:50:53;3.92;;;2.10;;
22026;SDS011;11177;50.966;10.070;2024-03-23T05:53:19;2.92;;;1.80;;
22026;SDS011;11177;50.966;10.070;2024-03-23T05:55:48;1.42;;;1.10;;
22026;SDS011;11177;50.966;10.070;2024-03-23T05:58:17;1.40;;;1.00;;
22026;SDS011;11177;50.966;10.070;2024-03-23T06:00:43;1.55;;;0.80;;
22026;SDS011;11177;50.966;10.070;2024-03-23T06:03:10;0.93;;;0.60;;
22026;SDS011;11177;50.966;10.070;2024-03-23T06:05:36;0.77;;;0.60;;
22026;SDS011;11177;50.966;10.070;2024-03-23T06:08:02;0.93;;;0.57;;
22026;SDS011;11177;50.966;10.070;2024-03-23T06:10:28;1.50;;;0.30;;
22026;SDS011;11177;50.966;10.070;2024-03-23T06:12:54;0.30;;;0.30;;
22026;SDS011;11177;50.966;10.070;2024-03-23T06:15:20;78.45;;;69.47;;
22026;SDS011;11177;50.966;10.070;2024-03-23T06:17:48;14.60;;;12.70;;
22026;SDS011;11177;50.966;10.070;2024-03-23T06:20:14;0.82;;;0.65;;
22026;SDS011;11177;50.966;10.070;2024-03-23T06:22:39;0.32;;;0.30;;
22026;SDS011;11177;50.966;10.070;2024-03-23T06:25:06;0.28;;;0.25;;
22026;SDS011;11177;50.966;10.070;2024-03-23T06:27:32;0.30;;;0.30;;
22026;SDS011;11177;50.966;10.070;2024-03-23T06:29:58;0.40;;;0.20;;
22026;SDS011;11177;50.966;10.070;2024-03-23T06:32:25;0.63;;;0.15;;
22026;SDS011;11177;50.966;10.070;2024-03-23T06:34:50;0.20;;;0.10;;
22026;SDS011;11177;50.966;10.070;2024-03-23T06:37:16;0.10;;;0.10;;
22026;SDS011;11177;50.966;10.070;2024-03-23T06:39:42;0.28;;;0.20;;
22026;SDS011;11177;50.966;10.070;2024-03-23T06:42:07;0.32;;;0.20;;
22026;SDS011;11177;50.966;10.070;2024-03-23T06:44:33;0.32;;;0.20;;
22026;SDS011;11177;50.966;10.070;2024-03-23T06:46:59;0.30;;;0.20;;
22026;SDS011;11177;50.966;10.070;2024-03-23T06:49:25;0.20;;;0.10;;
22026;SDS011;11177;50.966;10.070;2024-03-23T06:51:51;0.20;;;0.20;;
22026;SDS011;11177;50.966;10.070;2024-03-23T06:54:17;0.65;;;0.25;;
22026;SDS011;11177;50.966;10.070;2024-03-23T06:56:44;0.20;;;0.20;;
22026;SDS011;11177;50.966;10.070;2024-03-23T06:59:09;0.20;;;0.20;;
22026;SDS011;11177;50.966;10.070;2024-03-23T07:01:35;0.85;;;0.40;;
22026;SDS011;11177;50.966;10.070;2024-03-23T07:04:01;0.20;;;0.20;;
22026;SDS011;11177;50.966;10.070;2024-03-23T07:06:27;0.52;;;0.20;;
22026;SDS011;11177;50.966;10.070;2024-03-23T07:08:53;0.30;;;0.30;;
22026;SDS011;11177;50.966;10.070;2024-03-23T07:11:19;0.40;;;0.28;;
22026;SDS011;11177;50.966;10.070;2024-03-23T07:13:46;1.20;;;0.20;;
22026;SDS011;11177;50.966;10.070;2024-03-23T07:16:13;0.30;;;0.30;;
22026;SDS011;11177;50.966;10.070;2024-03-23T07:18:38;0.35;;;0.30;;
22026;SDS011;11177;50.966;10.070;2024-03-23T07:21:05;1.02;;;0.30;;
22026;SDS011;11177;50.966;10.070;2024-03-23T07:23:32;0.28;;;0.22;;
22026;SDS011;11177;50.966;10.070;2024-03-23T07:26:02;0.35;;;0.20;;
22026;SDS011;11177;50.966;10.070;2024-03-23T07:28:30;0.40;;;0.28;;
22026;SDS011;11177;50.966;10.070;2024-03-23T07:33:52;0.90;;;0.50;;
22026;SDS011;11177;50.966;10.070;2024-03-23T07:36:20;0.57;;;0.40;;
22026;SDS011;11177;50.966;10.070;2024-03-23T07:38:46;0.30;;;0.30;;
22026;SDS011;11177;50.966;10.070;2024-03-23T07:41:13;0.82;;;0.40;;
22026;SDS011;11177;50.966;10.070;2024-03-23T07:43:42;0.93;;;0.50;;
22026;SDS011;11177;50.966;10.070;2024-03-23T07:46:11;1.27;;;0.50;;
22026;SDS011;11177;50.966;10.070;2024-03-23T07:48:37;0.50;;;0.47;;
22026;SDS011;11177;50.966;10.070;2024-03-23T07:51:07;0.50;;;0.50;;
22026;SDS011;11177;50.966;10.070;2024-03-23T07:53:37;0.55;;;0.47;;
22026;SDS011;11177;50.966;10.070;2024-03-23T07:56:09;0.68;;;0.40;;
22026;SDS011;11177;50.966;10.070;2024-03-23T07:58:35;0.60;;;0.50;;
22026;SDS011;11177;50.966;10.070;2024-03-23T08:01:08;1.15;;;0.40;;
22026;SDS011;11177;50.966;10.070;2024-03-23T08:03:35;0.68;;;0.50;;
22026;SDS011;11177;50.966;10.070;2024-03-23T08:06:14;1.85;;;0.52;;
22026;SDS011;11177;50.966;10.070;2024-03-23T08:08:45;0.63;;;0.50;;
22026;SDS011;11177;50.966;10.070;2024-03-23T08:11:12;0.40;;;0.40;;
22026;SDS011;11177;50.966;10.070;2024-03-23T08:13:41;0.38;;;0.38;;
22026;SDS011;11177;50.966;10.070;2024-03-23T08:16:07;0.63;;;0.50;;
22026;SDS011;11177;50.966;10.070;2024-03-23T08:18:34;0.50;;;0.40;;
22026;SDS011;11177;50.966;10.070;2024-03-23T08:21:03;0.50;;;0.50;;
22026;SDS011;11177;50.966;10.070;2024-03-23T08:23:35;1.10;;;0.90;;
22026;SDS011;11177;50.966;10.070;2024-03-23T08:26:09;1.38;;;1.15;;
22026;SDS011;11177;50.966;10.070;2024-03-23T08:28:36;2.30;;;1.10;;
22026;SDS011;11177;50.966;10.070;2024-03-23T08:31:03;2.60;;;1.42;;
22026;SDS011;11177;50.966;10.070;2024-03-23T08:33:30;2.13;;;0.80;;
22026;SDS011;11177;50.966;10.070;2024-03-23T08:35:57;5.18;;;1.10;;
22026;SDS011;11177;50.966;10.070;2024-03-23T08:38:24;3.70;;;1.27;;
22026;SDS011;11177;50.966;10.070;2024-03-23T08:41:09;5.25;;;1.30;;
22026;SDS011;11177;50.966;10.070;2024-03-23T08:43:36;2.00;;;1.20;;
22026;SDS011;11177;50.966;10.070;2024-03-23T08:46:12;5.30;;;2.17;;
22026;SDS011;11177;50.966;10.070;2024-03-23T08:48:42;3.22;;;1.15;;
22026;SDS011;11177;50.966;10.070;2024-03-23T08:51:11;4.40;;;1.48;;
22026;SDS011;11177;50.966;10.070;2024-03-23T08:53:40;5.45;;;1.65;;
22026;SDS011;11177;50.966;10.070;2024-03-23T08:56:07;5.65;;;1.67;;
22026;SDS011;11177;50.966;10.070;2024-03-23T08:58:34;4.72;;;1.75;;
22026;SDS011;11177;50.966;10.070;2024-03-23T09:01:04;3.00;;;1.50;;
22026;SDS011;11177;50.966;10.070;2024-03-23T09:03:33;1.88;;;1.20;;
22026;SDS011;11177;50.966;10.070;2024-03-23T09:06:02;3.70;;;1.20;;
22026;SDS011;11177;50.966;10.070;2024-03-23T09:08:31;3.25;;;0.88;;
22026;SDS011;11177;50.966;10.070;2024-03-23T09:10:57;2.30;;;1.08;;
22026;SDS011;11177;50.966;10.070;2024-03-23T09:13:23;2.45;;;1.00;;
22026;SDS011;11177;50.966;10.070;2024-03-23T09:15:50;3.90;;;1.30;;
22026;SDS011;11177;50.966;10.070;2024-03-23T09:18:16;11.60;;;1.60;;
22026;SDS011;11177;50.966;10.070;2024-03-23T09:20:42;4.20;;;1.55;;
22026;SDS011;11177;50.966;10.070;2024-03-23T09:23:08;6.03;;;2.00;;
22026;SDS011;11177;50.966;10.070;2024-03-23T09:25:37;3.30;;;1.80;;
22026;SDS011;11177;50.966;10.070;2024-03-23T09:28:04;3.83;;;1.75;;
22026;SDS011;11177;50.966;10.070;2024-03-23T09:30:36;4.57;;;1.60;;
22026;SDS011;11177;50.966;10.070;2024-03-23T09:33:09;5.30;;;2.00;;
22026;SDS011;11177;50.966;10.070;2024-03-23T09:35:39;4.28;;;1.60;;
22026;SDS011;11177;50.966;10.070;2024-03-23T09:38:05;7.63;;;2.53;;
22026;SDS011;11177;50.966;10.070;2024-03-23T09:40:33;7.05;;;2.30;;
22026;SDS011;11177;50.966;10.070;2024-03-23T09:42:59;9.32;;;2.40;;
22026;SDS011;11177;50.966;10.070;2024-03-23T09:45:28;5.90;;;2.00;;
22026;SDS011;11177;50.966;10.070;2024-03-23T09:47:54;3.78;;;1.75;;
22026;SDS011;11177;50.966;10.070;2024-03-23T09:50:21;4.55;;;2.00;;
22026;SDS011;11177;50.966;10.070;2024-03-23T09:52:47;5.88;;;2.33;;
22026;SDS011;11177;50.966;10.070;2024-03-23T09:55:14;9.80;;;2.30;;
22026;SDS011;11177;50.966;10.070;2024-03-23T09:57:40;5.03;;;2.28;;
22026;SDS011;11177;50.966;10.070;2024-03-23T10:00:06;9.70;;;2.60;;
22026;SDS011;11177;50.966;10.070;2024-03-23T10:02:34;5.55;;;2.70;;
22026;SDS011;11177;50.966;10.070;2024-03-23T10:05:00;7.47;;;2.67;;
22026;SDS011;11177;50.966;10.070;2024-03-23T10:07:26;8.35;;;2.65;;
22026;SDS011;11177;50.966;10.070;2024-03-23T10:09:54;6.97;;;2.78;;
22026;SDS011;11177;50.966;10.070;2024-03-23T10:12:20;6.88;;;3.60;;
22026;SDS011;11177;50.966;10.070;2024-03-23T10:14:46;6.47;;;3.00;;
22026;SDS011;11177;50.966;10.070;2024-03-23T10:17:18;8.05;;;2.60;;
22026;SDS011;11177;50.966;10.070;2024-03-23T10:19:45;9.23;;;2.75;;
22026;SDS011;11177;50.966;10.070;2024-03-23T10:22:15;4.22;;;2.70;;
22026;SDS011;11177;50.966;10.070;2024-03-23T10:24:43;6.30;;;2.60;;
22026;SDS011;11177;50.966;10.070;2024-03-23T10:27:08;9.98;;;3.33;;
22026;SDS011;11177;50.966;10.070;2024-03-23T10:29:34;3.83;;;2.50;;
22026;SDS011;11177;50.966;10.070;2024-03-23T10:32:09;5.43;;;2.20;;
22026;SDS011;11177;50.966;10.070;2024-03-23T10:34:36;7.70;;;2.97;;
22026;SDS011;11177;50.966;10.070;2024-03-23T10:37:02;8.70;;;2.65;;
22026;SDS011;11177;50.966;10.070;2024-03-23T10:39:30;5.10;;;2.88;;
22026;SDS011;11177;50.966;10.070;2024-03-23T10:41:57;6.10;;;2.47;;
22026;SDS011;11177;50.966;10.070;2024-03-23T10:44:23;6.07;;;2.97;;
22026;SDS011;11177;50.966;10.070;2024-03-23T10:46:52;8.82;;;2.72;;
22026;SDS011;11177;50.966;10.070;2024-03-23T10:49:25;10.15;;;3.25;;
22026;SDS011;11177;50.966;10.070;2024-03-23T10:51:52;5.40;;;2.83;;
22026;SDS011;11177;50.966;10.070;2024-03-23T10:54:20;10.90;;;3.35;;
22026;SDS011;11177;50.966;10.070;2024-03-23T10:56:50;10.40;;;3.17;;
22026;SDS011;11177;50.966;10.070;2024-03-23T10:59:38;12.18;;;3.80;;
22026;SDS011;11177;50.966;10.070;2024-03-23T11:02:04;10.90;;;3.40;;
22026;SDS011;11177;50.966;10.070;2024-03-23T11:09:56;14.65;;;3.40;;
22026;SDS011;11177;50.966;10.070;2024-03-23T11:12:26;10.73;;;3.22;;
22026;SDS011;11177;50.966;10.070;2024-03-23T11:17:28;10.85;;;3.03;;
22026;SDS011;11177;50.966;10.070;2024-03-23T11:20:01;6.63;;;2.67;;
22026;SDS011;11177;50.966;10.070;2024-03-23T11:25:22;15.07;;;3.63;;
22026;SDS011;11177;50.966;10.070;2024-03-23T11:27:52;5.20;;;3.40;;
22026;SDS011;11177;50.966;10.070;2024-03-23T11:30:25;8.15;;;3.05;;
22026;SDS011;11177;50.966;10.070;2024-03-23T11:32:52;9.68;;;2.97;;
22026;SDS011;11177;50.966;10.070;2024-03-23T11:35:32;8.07;;;2.53;;
22026;SDS011;11177;50.966;10.070;2024-03-23T11:38:09;10.20;;;2.70;;
22026;SDS011;11177;50.966;10.070;2024-03-23T11:40:36;5.07;;;2.55;;
22026;SDS011;11177;50.966;10.070;2024-03-23T11:43:06;6.97;;;2.50;;
22026;SDS011;11177;50.966;10.070;2024-03-23T11:45:34;6.82;;;2.08;;
22026;SDS011;11177;50.966;10.070;2024-03-23T11:48:02;4.15;;;2.03;;
22026;SDS011;11177;50.966;10.070;2024-03-23T11:50:31;5.20;;;1.95;;
22026;SDS011;11177;50.966;10.070;2024-03-23T11:55:53;6.35;;;1.75;;
22026;SDS011;11177;50.966;10.070;2024-03-23T11:58:21;6.85;;;1.90;;
22026;SDS011;11177;50.966;10.070;2024-03-23T12:00:51;4.22;;;1.60;;
22026;SDS011;11177;50.966;10.070;2024-03-23T12:03:18;4.53;;;2.20;;
22026;SDS011;11177;50.966;10.070;2024-03-23T12:05:47;5.97;;;1.67;;
22026;SDS011;11177;50.966;10.070;2024-03-23T12:08:15;7.07;;;1.67;;
22026;SDS011;11177;50.966;10.070;2024-03-23T12:10:50;7.10;;;1.75;;
22026;SDS011;11177;50.966;10.070;2024-03-23T12:13:29;5.63;;;1.73;;
22026;SDS011;11177;50.966;10.070;2024-03-23T12:15:57;7.05;;;1.80;;
22026;SDS011;11177;50.966;10.070;2024-03-23T12:18:37;6.38;;;2.00;;
22026;SDS011;11177;50.966;10.070;2024-03-23T12:21:05;5.35;;;1.83;;
22026;SDS011;11177;50.966;10.070;2024-03-23T12:23:31;5.45;;;1.90;;
22026;SDS011;11177;50.966;10.070;2024-03-23T12:25:57;8.52;;;1.73;;
22026;SDS011;11177;50.966;10.070;2024-03-23T12:28:23;6.97;;;1.40;;
22026;SDS011;11177;50.966;10.070;2024-03-23T12:30:49;8.02;;;1.80;;
22026;SDS011;11177;50.966;10.070;2024-03-23T12:33:15;3.03;;;1.50;;
22026;SDS011;11177;50.966;10.070;2024-03-23T12:35:41;11.05;;;2.38;;
22026;SDS011;11177;50.966;10.070;2024-03-23T12:38:06;10.20;;;2.58;;
22026;SDS011;11177;50.966;10.070;2024-03-23T12:40:32;11.10;;;2.72;;
22026;SDS011;11177;50.966;10.070;2024-03-23T12:42:58;9.90;;;2.10;;
22026;SDS011;11177;50.966;10.070;2024-03-23T12:45:24;7.00;;;2.20;;
22026;SDS011;11177;50.966;10.070;2024-03-23T12:47:49;4.13;;;1.67;;
22026;SDS011;11177;50.966;10.070;2024-03-23T12:50:17;9.77;;;1.92;;
22026;SDS011;11177;50.966;10.070;2024-03-23T12:52:43;6.03;;;1.90;;
22026;SDS011;11177;50.966;10.070;2024-03-23T12:55:09;3.55;;;2.10;;
22026;SDS011;11177;50.966;10.070;2024-03-23T12:57:35;3.83;;;1.85;;
22026;SDS011;11177;50.966;10.070;2024-03-23T13:00:01;5.45;;;1.88;;
22026;SDS011;11177;50.966;10.070;2024-03-23T13:02:28;4.72;;;2.35;;
22026;SDS011;11177;50.966;10.070;2024-03-23T13:04:54;3.38;;;1.80;;
22026;SDS011;11177;50.966;10.070;2024-03-23T13:07:21;3.15;;;1.90;;
22026;SDS011;11177;50.966;10.070;2024-03-23T13:09:50;8.98;;;2.22;;
22026;SDS011;11177;50.966;10.070;2024-03-23T13:12:17;6.43;;;2.00;;
22026;SDS011;11177;50.966;10.070;2024-03-23T13:14:46;7.38;;;2.03;;
22026;SDS011;11177;50.966;10.070;2024-03-23T13:17:13;5.85;;;2.00;;
22026;SDS011;11177;50.966;10.070;2024-03-23T13:19:39;12.52;;;3.92;;
22026;SDS011;11177;50.966;10.070;2024-03-23T13:22:05;7.40;;;2.22;;
22026;SDS011;11177;50.966;10.070;2024-03-23T13:24:30;5.05;;;2.45;;
22026;SDS011;11177;50.966;10.070;2024-03-23T13:26:56;3.22;;;1.88;;
22026;SDS011;11177;50.966;10.070;2024-03-23T13:29:23;5.25;;;2.00;;
22026;SDS011;11177;50.966;10.070;2024-03-23T13:31:51;6.32;;;2.10;;
22026;SDS011;11177;50.966;10.070;2024-03-23T13:34:20;4.47;;;1.80;;
22026;SDS011;11177;50.966;10.070;2024-03-23T13:36:46;6.88;;;2.15;;
22026;SDS011;11177;50.966;10.070;2024-03-23T13:39:14;3.40;;;1.90;;
22026;SDS011;11177;50.966;10.070;2024-03-23T13:41:41;3.35;;;1.83;;
22026;SDS011;11177;50.966;10.070;2024-03-23T13:44:09;15.40;;;2.75;;
22026;SDS011;11177;50.966;10.070;2024-03-23T13:46:36;5.47;;;2.10;;
22026;SDS011;11177;50.966;10.070;2024-03-23T13:49:02;9.50;;;2.10;;
22026;SDS011;11177;50.966;10.070;2024-03-23T13:51:29;6.28;;;2.10;;
22026;SDS011;11177;50.966;10.070;2024-03-23T13:53:54;6.22;;;2.25;;
22026;SDS011;11177;50.966;10.070;2024-03-23T13:56:24;5.68;;;2.10;;
22026;SDS011;11177;50.966;10.070;2024-03-23T13:58:49;5.25;;;2.17;;
22026;SDS011;11177;50.966;10.070;2024-03-23T14:01:15;4.43;;;1.95;;
22026;SDS011;11177;50.966;10.070;2024-03-23T14:03:43;5.93;;;2.40;;
22026;SDS011;11177;50.966;10.070;2024-03-23T14:06:09;4.55;;;2.00;;
22026;SDS011;11177;50.966;10.070;2024-03-23T14:08:35;2.78;;;1.45;;
22026;SDS011;11177;50.966;10.070;2024-03-23T14:11:10;2.40;;;1.38;;
22026;SDS011;11177;50.966;10.070;2024-03-23T14:13:36;4.07;;;1.40;;
22026;SDS011;11177;50.966;10.070;2024-03-23T14:16:03;2.63;;;1.27;;
22026;SDS011;11177;50.966;10.070;2024-03-23T14:18:29;3.33;;;1.33;;
22026;SDS011;11177;50.966;10.070;2024-03-23T14:20:59;1.27;;;0.90;;
22026;SDS011;11177;50.966;10.070;2024-03-23T14:23:26;1.52;;;1.02;;
22026;SDS011;11177;50.966;10.070;2024-03-23T14:25:52;3.47;;;1.00;;
22026;SDS011;11177;50.966;10.070;2024-03-23T14:28:19;2.70;;;0.93;;
22026;SDS011;11177;50.966;10.070;2024-03-23T14:30:44;2.90;;;0.82;;
22026;SDS011;11177;50.966;10.070;2024-03-23T14:33:13;1.00;;;0.90;;
22026;SDS011;11177;50.966;10.070;2024-03-23T14:35:39;3.08;;;0.90;;
22026;SDS011;11177;50.966;10.070;2024-03-23T14:38:05;1.70;;;1.00;;
22026;SDS011;11177;50.966;10.070;2024-03-23T14:40:33;4.82;;;1.45;;
22026;SDS011;11177;50.966;10.070;2024-03-23T14:42:59;3.38;;;1.45;;
22026;SDS011;11177;50.966;10.070;2024-03-23T14:45:25;4.40;;;1.30;;
22026;SDS011;11177;50.966;10.070;2024-03-23T14:47:51;3.38;;;1.10;;
22026;SDS011;11177;50.966;10.070;2024-03-23T14:50:17;6.25;;;1.55;;
22026;SDS011;11177;50.966;10.070;2024-03-23T14:52:44;2.28;;;0.70;;
22026;SDS011;11177;50.966;10.070;2024-03-23T14:55:13;5.03;;;0.90;;
22026;SDS011;11177;50.966;10.070;2024-03-23T14:57:40;0.88;;;0.60;;
22026;SDS011;11177;50.966;10.070;2024-03-23T15:00:06;2.58;;;0.80;;
22026;SDS011;11177;50.966;10.070;2024-03-23T15:02:39;1.73;;;0.90;;
22026;SDS011;11177;50.966;10.070;2024-03-23T15:05:05;4.72;;;1.10;;
22026;SDS011;11177;50.966;10.070;2024-03-23T15:07:35;1.92;;;0.65;;
22026;SDS011;11177;50.966;10.070;2024-03-23T15:10:04;1.42;;;0.68;;
22026;SDS011;11177;50.966;10.070;2024-03-23T15:12:33;3.13;;;1.92;;
22026;SDS011;11177;50.966;10.070;2024-03-23T15:14:59;3.63;;;1.20;;
22026;SDS011;11177;50.966;10.070;2024-03-23T15:17:26;3.63;;;0.73;;
22026;SDS011;11177;50.966;10.070;2024-03-23T15:19:51;2.28;;;0.70;;
22026;SDS011;11177;50.966;10.070;2024-03-23T15:22:19;3.70;;;0.80;;
22026;SDS011;11177;50.966;10.070;2024-03-23T15:24:46;2.97;;;0.95;;
22026;SDS011;11177;50.966;10.070;2024-03-23T15:27:15;3.33;;;0.95;;
22026;SDS011;11177;50.966;10.070;2024-03-23T15:29:41;1.65;;;0.70;;
22026;SDS011;11177;50.966;10.070;2024-03-23T15:32:11;2.55;;;0.80;;
22026;SDS011;11177;50.966;10.070;2024-03-23T15:34:37;3.00;;;1.00;;